Armavir, Russia

5:02 AM MSK on May 07, 2015 (GMT +0300)
Shpakovskoye | | Change Station
CLOSE
Current Station
Airport
Location: Stavropol',
Elevation: 1483 ft
Nearby Weather Stations

Elev 1483 ft 45.12 °N, 42.08 °E | Updated 32 minutes ago

Rain Showers
Showers Rain
46 °F
Feels Like 41 °F
N
11
Wind Variable Wind from NW

Today
High -- | Low -- °F
--% Chance of Precip.
Yesterday
High -- | Low -- °F
Precip. -- in
4:57 AM 7:27 PM
Waning Gibbous, 91% visible
Pressure 29.86 in
Visibility 1.2 miles
Clouds Scattered Clouds 600 ft
Mostly Cloudy 2000 ft
Windchill 41 °F
Dew Point 46 °F
Humidity 100%
Rainfall 0.00 in
Snow Depth Not available.
UV 0 out of 12
Pollen Not available.
Air Quality Not available.
Flu Activity Not available.
METAR URMT 070130Z 31005MPS 2000 R25/2000N SHRA SCT006 BKN020CB 08/08 Q1011 R25/250250 NOSIG RMK QFE720

More Conditions Fewer Conditions

Pressure 29.86 in
Visibility 1.2 miles
Clouds Scattered Clouds 600 ft
Mostly Cloudy 2000 ft
Windchill 41 °F
Dew Point 46 °F
Humidity 100%
Rainfall 0.00 in
Snow Depth Not available.
UV 0 out of 12
Pollen Not available.
Air Quality Not available.
Flu Activity Not available.
METAR URMT 070130Z 31005MPS 2000 R25/2000N SHRA SCT006 BKN020CB 08/08 Q1011 R25/250250 NOSIG RMK QFE720

More Conditions Fewer Conditions

10-Day Weather Forecast

Almanac

Astronomy

May. 07, 2015 Rise Set
Actual Time
Civil Twilight
Nautical Twilight
Astronomical Twilight
Moon
Length of Visible Light
Length of Day
Tomorrow will be .
, % of the Moon is Illuminated

Today's Extremes

Country Highs Country Lows

Community

WunderPhotos

Upload Photos

1,819,074 photos uploaded!

WunderBlogs® & News

Nearby

Air Quality

  Air Quality AQ Index Pollutant
Not available.

Snow Depth

Station Depth Elevation

Earthquake Activity

City Distance Mag. Time & Date
Minimum magnitude displayed is 2.5.

Coastal Water Temperatures

Place Temperature

Stations

Nearby Weather Stations

Station Location Temp. Windchill Dew Point Humidity Wind Precip. Elev Updated Type